createdAt,value
2023-01-19T00:00:07.563Z,74.22
2023-01-19T00:02:53.349Z,78.52
2023-01-19T00:05:39.435Z,78.07
2023-01-19T00:08:25.381Z,76.40
2023-01-19T00:11:11.049Z,76.63
2023-01-19T00:13:56.880Z,74.44
2023-01-19T00:16:42.724Z,74.75
2023-01-19T00:19:28.591Z,78.46
2023-01-19T00:22:14.416Z,77.31
2023-01-19T00:25:00.188Z,76.06
2023-01-19T00:27:46.208Z,74.51
2023-01-19T00:30:31.899Z,79.15
2023-01-19T00:33:17.784Z,79.30
2023-01-19T00:36:03.783Z,75.63
2023-01-19T00:38:49.597Z,72.51
2023-01-19T00:41:35.551Z,75.90
2023-01-19T00:44:21.469Z,84.04
2023-01-19T00:47:07.269Z,79.12
2023-01-19T00:49:53.243Z,76.70
2023-01-19T00:52:39.017Z,73.87
2023-01-19T00:55:24.910Z,80.22
2023-01-19T00:58:10.970Z,80.34
2023-01-19T01:00:56.853Z,76.26
2023-01-19T01:03:42.901Z,71.20
2023-01-19T01:06:28.795Z,72.04
2023-01-19T01:09:14.622Z,73.20
2023-01-19T01:12:00.496Z,75.18
2023-01-19T01:14:46.315Z,77.38
2023-01-19T01:17:32.150Z,74.83
2023-01-19T01:20:17.987Z,77.43
2023-01-19T01:23:04.294Z,80.16
2023-01-19T01:25:50.347Z,77.73
2023-01-19T01:28:36.105Z,76.66
2023-01-19T01:31:22.073Z,77.81
2023-01-19T01:34:07.853Z,77.64
2023-01-19T01:36:53.780Z,77.44
2023-01-19T01:39:39.615Z,76.76
2023-01-19T01:42:25.498Z,76.27
2023-01-19T01:45:11.173Z,74.95
2023-01-19T01:47:57.157Z,75.72
2023-01-19T01:50:43.059Z,76.01
2023-01-19T01:53:29.089Z,74.04
2023-01-19T01:56:15.106Z,73.64
2023-01-19T01:59:01.152Z,75.21
2023-01-19T02:01:49.129Z,76.15
2023-01-19T02:04:35.502Z,76.28
2023-01-19T02:07:21.300Z,77.83
2023-01-19T02:10:07.188Z,76.93
2023-01-19T02:12:53.035Z,74.40
2023-01-19T02:15:38.843Z,77.56
2023-01-19T02:18:24.891Z,71.19
2023-01-19T02:21:10.637Z,73.89
2023-01-19T02:23:56.573Z,72.22
2023-01-19T02:26:42.542Z,68.67
2023-01-19T02:29:28.357Z,71.36
2023-01-19T02:32:14.370Z,73.08
2023-01-19T02:35:00.305Z,74.06
2023-01-19T02:37:46.124Z,73.45
2023-01-19T02:40:32.109Z,72.40
2023-01-19T02:43:17.856Z,71.86
2023-01-19T02:46:03.780Z,71.71
2023-01-19T02:48:49.633Z,77.02
2023-01-19T02:51:35.456Z,77.58
2023-01-19T02:54:21.370Z,79.40
2023-01-19T02:57:07.347Z,79.04
2023-01-19T02:59:53.164Z,79.95
2023-01-19T03:02:41.234Z,77.46
2023-01-19T03:05:27.100Z,79.84
2023-01-19T03:08:12.931Z,78.29
2023-01-19T03:10:58.746Z,79.36
2023-01-19T03:13:44.585Z,77.49
2023-01-19T03:16:30.430Z,76.34
2023-01-19T03:19:16.422Z,73.09
2023-01-19T03:22:02.340Z,73.15
2023-01-19T03:24:48.383Z,75.99
2023-01-19T03:27:34.303Z,75.24
2023-01-19T03:30:20.237Z,74.56
2023-01-19T03:33:06.117Z,75.22
2023-01-19T03:35:52.036Z,74.15
2023-01-19T03:38:37.982Z,76.21
2023-01-19T03:41:23.723Z,77.97
2023-01-19T03:44:09.618Z,77.53
2023-01-19T03:46:55.527Z,76.72
2023-01-19T03:49:41.531Z,75.47
2023-01-19T03:52:27.481Z,77.90
2023-01-19T03:55:13.298Z,78.77
2023-01-19T03:57:59.152Z,75.71
2023-01-19T04:00:45.072Z,74.30
2023-01-19T04:03:30.938Z,74.65
2023-01-19T04:06:16.857Z,76.83
2023-01-19T04:09:02.795Z,74.47
2023-01-19T04:11:48.500Z,78.20
2023-01-19T04:14:34.340Z,78.86
2023-01-19T04:17:20.253Z,74.73
2023-01-19T04:20:06.278Z,75.35
2023-01-19T04:22:52.218Z,78.28
2023-01-19T04:25:39.056Z,75.93
2023-01-19T04:28:25.206Z,71.76
2023-01-19T04:31:11.228Z,69.08
2023-01-19T04:33:57.153Z,65.66
2023-01-19T04:36:43.035Z,65.92
2023-01-19T04:39:29.033Z,65.26
2023-01-19T04:42:15.077Z,64.31
2023-01-19T04:45:01.060Z,64.14
2023-01-19T04:47:46.971Z,65.69
2023-01-19T04:50:32.961Z,65.21
2023-01-19T04:53:18.899Z,66.49
2023-01-19T04:56:04.729Z,66.67
2023-01-19T04:58:50.665Z,67.35
2023-01-19T05:01:36.506Z,66.15
2023-01-19T05:04:22.792Z,67.52
2023-01-19T05:07:08.766Z,68.12
2023-01-19T05:09:54.623Z,67.25
2023-01-19T05:12:40.465Z,68.94
2023-01-19T05:15:26.446Z,68.99
2023-01-19T05:18:12.351Z,67.72
2023-01-19T05:20:58.296Z,64.77
2023-01-19T05:23:44.101Z,63.75
2023-01-19T05:26:29.994Z,62.12
2023-01-19T05:29:16.404Z,59.50
2023-01-19T05:32:02.243Z,64.82
2023-01-19T05:34:48.694Z,64.31
2023-01-19T05:37:34.742Z,65.01
2023-01-19T05:40:20.628Z,65.84
2023-01-19T05:43:06.735Z,64.13
2023-01-19T05:45:52.627Z,65.83
2023-01-19T05:48:38.638Z,65.19
2023-01-19T05:51:24.645Z,65.59
2023-01-19T05:54:10.442Z,63.41
2023-01-19T05:56:56.265Z,61.91
2023-01-19T05:59:42.031Z,59.23
2023-01-19T06:02:27.886Z,56.25
2023-01-19T06:05:14.353Z,58.64
2023-01-19T06:08:00.073Z,58.53
2023-01-19T06:10:46.028Z,57.51
2023-01-19T06:13:31.979Z,58.95
2023-01-19T06:16:17.755Z,59.68
2023-01-19T06:19:03.770Z,58.71
2023-01-19T06:21:49.737Z,59.40
2023-01-19T06:24:35.924Z,60.02
2023-01-19T06:27:21.779Z,59.85
2023-01-19T06:30:07.643Z,59.06
2023-01-19T06:32:53.396Z,58.25
2023-01-19T06:35:39.373Z,58.52
2023-01-19T06:38:25.294Z,57.98
2023-01-19T06:41:11.212Z,57.48
2023-01-19T06:43:57.061Z,55.42
2023-01-19T06:46:42.836Z,54.86
2023-01-19T06:49:28.849Z,56.08
2023-01-19T06:52:14.705Z,57.29
2023-01-19T06:55:00.676Z,55.50
2023-01-19T06:57:46.652Z,55.36
2023-01-19T07:00:33.011Z,54.71
2023-01-19T07:03:19.082Z,55.53
2023-01-19T07:06:07.024Z,56.68
2023-01-19T07:08:53.271Z,59.99
2023-01-19T07:11:39.064Z,61.81
2023-01-19T07:14:24.928Z,61.96
2023-01-19T07:17:10.807Z,61.91
2023-01-19T07:19:56.773Z,62.88
2023-01-19T07:22:44.507Z,63.15
2023-01-19T07:25:30.486Z,63.66
2023-01-19T07:28:16.549Z,62.86
2023-01-19T07:31:02.366Z,61.10
2023-01-19T07:33:48.281Z,60.99
2023-01-19T07:36:34.226Z,59.49
2023-01-19T07:39:20.096Z,60.69
2023-01-19T07:42:06.038Z,60.70
2023-01-19T07:44:51.781Z,60.16
2023-01-19T07:47:37.608Z,59.34
2023-01-19T07:50:23.388Z,59.35
2023-01-19T07:53:09.284Z,60.41
2023-01-19T07:55:55.282Z,59.47
2023-01-19T07:58:41.187Z,58.47
2023-01-19T08:01:27.135Z,57.39
2023-01-19T08:04:13.370Z,57.64
2023-01-19T08:06:59.323Z,57.78
2023-01-19T08:09:45.434Z,63.28
2023-01-19T08:12:31.387Z,62.01
2023-01-19T08:15:17.251Z,60.94
2023-01-19T08:18:03.203Z,61.38
2023-01-19T08:20:49.007Z,58.87
2023-01-19T08:23:34.903Z,58.38
2023-01-19T08:26:20.719Z,58.69
2023-01-19T08:29:06.523Z,61.09
2023-01-19T08:31:52.737Z,64.31
2023-01-19T08:34:38.789Z,64.99
2023-01-19T08:37:24.584Z,66.19
2023-01-19T08:40:10.649Z,65.85
2023-01-19T08:42:56.557Z,66.50
2023-01-19T08:45:42.262Z,66.96
2023-01-19T08:48:28.160Z,68.36
2023-01-19T08:51:13.798Z,68.24
2023-01-19T08:53:59.746Z,68.66
2023-01-19T08:56:45.747Z,68.67
2023-01-19T08:59:31.593Z,67.06
2023-01-19T09:02:17.574Z,65.17
2023-01-19T09:05:03.342Z,63.39
2023-01-19T09:07:49.257Z,61.47
2023-01-19T09:10:35.219Z,60.35
2023-01-19T09:13:20.950Z,58.76
2023-01-19T09:16:06.979Z,58.31
2023-01-19T09:18:52.714Z,57.86
2023-01-19T09:21:38.621Z,56.91
2023-01-19T09:24:24.536Z,55.23
2023-01-19T09:27:10.441Z,55.32
2023-01-19T09:29:56.284Z,57.17
2023-01-19T09:32:42.264Z,60.12
2023-01-19T09:35:28.463Z,60.59
2023-01-19T09:38:14.397Z,58.51
2023-01-19T09:41:00.134Z,58.85
2023-01-19T09:43:46.067Z,59.96
2023-01-19T09:46:32.244Z,61.80
2023-01-19T09:49:18.400Z,59.35
2023-01-19T09:52:04.216Z,58.00
2023-01-19T09:54:49.982Z,59.09
2023-01-19T09:57:35.818Z,57.63
2023-01-19T10:00:21.638Z,56.58
2023-01-19T10:03:07.529Z,53.00
2023-01-19T10:05:53.638Z,53.75
2023-01-19T10:08:41.656Z,53.90
2023-01-19T10:11:31.845Z,55.10
2023-01-19T10:14:20.335Z,55.33
2023-01-19T10:17:06.370Z,55.45
2023-01-19T10:19:52.381Z,54.67
2023-01-19T10:22:38.182Z,53.19
2023-01-19T10:25:24.080Z,52.20
2023-01-19T10:28:10.076Z,52.05
2023-01-19T10:30:55.830Z,50.90
2023-01-19T10:33:41.803Z,50.72
2023-01-19T10:36:27.579Z,50.58
2023-01-19T10:39:13.595Z,50.81
2023-01-19T10:41:59.548Z,50.84
2023-01-19T10:44:45.354Z,50.54
2023-01-19T10:47:31.190Z,49.11
2023-01-19T10:50:17.071Z,49.45
2023-01-19T10:53:03.318Z,50.43
2023-01-19T10:55:50.309Z,52.57
2023-01-19T10:58:38.370Z,55.35
2023-01-19T11:01:24.280Z,59.04
2023-01-19T11:04:10.371Z,59.94
2023-01-19T11:06:56.212Z,58.78
2023-01-19T11:09:43.313Z,59.19
2023-01-19T11:12:29.385Z,58.03
2023-01-19T11:15:15.187Z,56.39
2023-01-19T11:18:00.914Z,55.75
2023-01-19T11:20:46.871Z,54.94
2023-01-19T11:23:32.781Z,58.32
2023-01-19T11:26:18.729Z,57.27
2023-01-19T11:29:04.749Z,58.19
2023-01-19T11:31:50.751Z,57.63
2023-01-19T11:34:36.830Z,56.71
2023-01-19T11:37:22.692Z,57.77
2023-01-19T11:40:08.587Z,57.17
2023-01-19T11:42:54.499Z,58.87
2023-01-19T11:45:40.372Z,58.30
2023-01-19T11:48:26.236Z,57.47
2023-01-19T11:51:12.114Z,57.90
2023-01-19T11:53:58.349Z,58.76
2023-01-19T11:56:44.463Z,58.37
2023-01-19T11:59:30.343Z,59.58
2023-01-19T12:02:16.420Z,60.62
2023-01-19T12:05:02.367Z,60.19
2023-01-19T12:07:48.325Z,59.09
2023-01-19T12:10:34.182Z,59.44
2023-01-19T12:13:20.099Z,58.44
2023-01-19T12:16:06.293Z,58.69
2023-01-19T12:18:52.345Z,58.40
2023-01-19T12:21:38.258Z,55.57
2023-01-19T12:24:24.209Z,53.66
2023-01-19T12:27:10.069Z,54.21
2023-01-19T12:29:56.041Z,54.22
2023-01-19T12:32:42.029Z,52.08
2023-01-19T12:35:29.989Z,51.74
2023-01-19T12:38:15.969Z,51.70
2023-01-19T12:41:01.952Z,51.69
2023-01-19T12:43:47.724Z,50.45
2023-01-19T12:46:33.635Z,51.52
2023-01-19T12:49:19.638Z,54.22
2023-01-19T12:52:05.526Z,54.29
2023-01-19T12:54:51.407Z,54.38
2023-01-19T12:57:37.280Z,54.86
2023-01-19T13:00:23.351Z,53.35
2023-01-19T13:03:09.652Z,52.50
2023-01-19T13:05:55.442Z,49.65
2023-01-19T13:08:41.432Z,50.47
2023-01-19T13:11:31.336Z,49.41
2023-01-19T13:14:19.419Z,50.31
2023-01-19T13:17:05.134Z,49.21
2023-01-19T13:19:51.051Z,46.53
2023-01-19T13:22:36.801Z,48.88
2023-01-19T13:25:22.733Z,49.43
2023-01-19T13:28:08.747Z,49.78
2023-01-19T13:30:54.700Z,47.30
2023-01-19T13:33:41.295Z,47.19
2023-01-19T13:36:27.457Z,46.06
2023-01-19T13:39:13.276Z,47.09
2023-01-19T13:41:59.244Z,47.20
2023-01-19T13:44:45.125Z,47.31
2023-01-19T13:47:31.080Z,44.33
2023-01-19T13:50:16.931Z,46.74
2023-01-19T13:53:02.757Z,51.96
2023-01-19T13:55:48.864Z,51.70
2023-01-19T13:58:34.797Z,51.57
2023-01-19T14:01:20.899Z,52.04
2023-01-19T14:04:07.070Z,51.83
2023-01-19T14:06:53.522Z,49.51
2023-01-19T14:09:39.674Z,50.24
2023-01-19T14:12:25.927Z,50.37
2023-01-19T14:15:11.875Z,50.77
2023-01-19T14:17:57.805Z,51.53
2023-01-19T14:20:44.071Z,48.76
2023-01-19T14:23:29.904Z,49.82
2023-01-19T14:26:15.925Z,50.36
2023-01-19T14:29:02.001Z,49.85
2023-01-19T14:31:48.049Z,49.83
2023-01-19T14:34:34.115Z,47.15
2023-01-19T14:37:20.039Z,51.77
2023-01-19T14:40:09.181Z,52.43
2023-01-19T14:42:55.131Z,51.90
2023-01-19T14:45:41.057Z,55.21
2023-01-19T14:48:27.500Z,58.63
2023-01-19T14:51:15.505Z,60.64
2023-01-19T14:54:01.471Z,59.21
2023-01-19T14:56:47.253Z,61.03
2023-01-19T14:59:33.291Z,61.11
2023-01-19T15:02:19.306Z,61.85
2023-01-19T15:05:05.398Z,60.71
2023-01-19T15:07:51.765Z,59.31
2023-01-19T15:10:37.582Z,59.20
2023-01-19T15:13:23.513Z,64.80
2023-01-19T15:16:09.453Z,59.68
2023-01-19T15:18:56.302Z,59.28
2023-01-19T15:21:42.419Z,58.03
2023-01-19T15:24:28.280Z,57.37
2023-01-19T15:27:14.235Z,56.54
2023-01-19T15:30:00.177Z,58.39
2023-01-19T15:32:46.130Z,58.62
2023-01-19T15:35:32.127Z,57.76
2023-01-19T15:38:18.107Z,60.65
2023-01-19T15:41:04.260Z,60.87
2023-01-19T15:43:52.289Z,58.48
2023-01-19T15:46:38.230Z,54.99
2023-01-19T15:49:24.111Z,56.22
2023-01-19T15:52:10.039Z,60.72
2023-01-19T15:54:55.859Z,60.39
2023-01-19T15:57:41.758Z,61.65
2023-01-19T16:00:27.793Z,62.61
2023-01-19T16:03:13.741Z,64.45
2023-01-19T16:06:01.685Z,66.05
2023-01-19T16:08:47.568Z,69.63
2023-01-19T16:11:33.503Z,68.37
2023-01-19T16:14:19.473Z,69.11
2023-01-19T16:17:05.302Z,66.70
2023-01-19T16:19:51.338Z,64.74
2023-01-19T16:22:37.241Z,66.01
2023-01-19T16:25:23.099Z,66.75
2023-01-19T16:28:08.994Z,64.73
2023-01-19T16:30:54.812Z,63.32
2023-01-19T16:33:40.667Z,66.18
2023-01-19T16:36:26.535Z,68.12
2023-01-19T16:39:12.371Z,67.91
2023-01-19T16:41:58.347Z,66.90
2023-01-19T16:44:44.420Z,66.82
2023-01-19T16:47:30.247Z,66.84
2023-01-19T16:50:16.097Z,68.57
2023-01-19T16:53:02.090Z,68.45
2023-01-19T16:55:47.936Z,69.00
2023-01-19T16:58:33.863Z,68.48
2023-01-19T17:01:20.446Z,70.77
2023-01-19T17:04:06.684Z,73.26
2023-01-19T17:06:52.741Z,73.96
2023-01-19T17:09:38.528Z,74.15
2023-01-19T17:12:24.545Z,78.28
2023-01-19T17:15:10.424Z,71.14
2023-01-19T17:17:56.273Z,71.77
2023-01-19T17:20:42.089Z,70.67
2023-01-19T17:23:28.012Z,76.12
2023-01-19T17:26:13.836Z,74.14
2023-01-19T17:28:59.844Z,74.97
2023-01-19T17:31:45.985Z,75.82
2023-01-19T17:34:32.296Z,74.40
2023-01-19T17:37:18.255Z,72.51
2023-01-19T17:40:04.109Z,71.69
2023-01-19T17:42:49.988Z,70.32
2023-01-19T17:45:35.713Z,69.58
2023-01-19T17:48:21.501Z,69.28
2023-01-19T17:51:07.609Z,68.81
2023-01-19T17:53:53.433Z,68.23
2023-01-19T17:56:39.313Z,67.16
2023-01-19T17:59:25.240Z,67.53
2023-01-19T18:02:11.385Z,68.56
2023-01-19T18:04:57.349Z,68.09
2023-01-19T18:07:43.212Z,67.78
2023-01-19T18:10:36.965Z,67.90
2023-01-19T18:13:23.240Z,68.94
2023-01-19T18:16:09.115Z,68.45
2023-01-19T18:18:55.088Z,68.62
2023-01-19T18:21:41.141Z,68.37
2023-01-19T18:24:26.980Z,68.49
2023-01-19T18:27:12.894Z,67.71
2023-01-19T18:29:58.803Z,67.96
2023-01-19T18:32:44.616Z,70.04
2023-01-19T18:35:30.632Z,69.01
2023-01-19T18:38:16.604Z,68.87
2023-01-19T18:41:02.334Z,68.88
2023-01-19T18:43:48.192Z,69.59
2023-01-19T18:46:33.983Z,69.75
2023-01-19T18:49:19.941Z,71.28
2023-01-19T18:52:05.780Z,70.78
2023-01-19T18:54:51.741Z,70.65
2023-01-19T18:57:37.657Z,70.88
2023-01-19T19:00:24.178Z,72.57
2023-01-19T19:03:10.057Z,72.73
2023-01-19T19:05:55.853Z,70.77
2023-01-19T19:08:41.752Z,68.96
2023-01-19T19:11:27.635Z,70.43
2023-01-19T19:14:13.644Z,70.88
2023-01-19T19:16:59.415Z,70.34
2023-01-19T19:19:45.264Z,69.75
2023-01-19T19:22:31.325Z,68.73
2023-01-19T19:25:17.252Z,68.20
2023-01-19T19:28:03.140Z,68.73
2023-01-19T19:30:49.077Z,67.49
2023-01-19T19:33:35.144Z,67.95
2023-01-19T19:36:21.016Z,67.40
2023-01-19T19:39:06.818Z,68.02
2023-01-19T19:41:52.801Z,69.33
2023-01-19T19:44:38.689Z,70.28
2023-01-19T19:47:24.669Z,71.21
2023-01-19T19:50:10.766Z,71.08
2023-01-19T19:52:56.957Z,70.27
2023-01-19T19:55:42.934Z,72.14
2023-01-19T19:58:29.102Z,71.41
2023-01-19T20:01:14.945Z,70.34
2023-01-19T20:04:01.217Z,72.72
2023-01-19T20:06:47.113Z,70.99
2023-01-19T20:09:33.033Z,70.62
2023-01-19T20:12:19.012Z,71.04
2023-01-19T20:15:04.831Z,70.73
2023-01-19T20:17:50.750Z,71.00
2023-01-19T20:20:36.694Z,70.63
2023-01-19T20:23:22.613Z,70.08
2023-01-19T20:26:08.476Z,70.05
2023-01-19T20:28:54.391Z,68.32
2023-01-19T20:31:40.491Z,66.94
2023-01-19T20:34:26.482Z,66.69
2023-01-19T20:37:12.278Z,66.05
2023-01-19T20:39:58.230Z,65.32
2023-01-19T20:42:44.048Z,65.02
2023-01-19T20:45:29.998Z,63.75
2023-01-19T20:48:16.154Z,63.52
2023-01-19T20:51:01.930Z,63.40
2023-01-19T20:53:47.816Z,64.80
2023-01-19T20:56:33.729Z,65.99
2023-01-19T20:59:19.707Z,67.76
2023-01-19T21:02:05.747Z,68.13
2023-01-19T21:04:51.766Z,65.82
2023-01-19T21:07:37.494Z,66.76
2023-01-19T21:10:24.077Z,66.98
2023-01-19T21:13:09.917Z,65.64
2023-01-19T21:15:55.783Z,65.62
2023-01-19T21:18:41.702Z,66.47
2023-01-19T21:21:31.799Z,65.23
2023-01-19T21:24:18.086Z,64.23
2023-01-19T21:27:04.036Z,64.91
2023-01-19T21:29:49.807Z,65.37
2023-01-19T21:32:35.764Z,67.37
2023-01-19T21:35:21.700Z,68.70
2023-01-19T21:38:07.606Z,64.92
2023-01-19T21:40:53.447Z,65.63
2023-01-19T21:43:39.441Z,66.73
2023-01-19T21:46:25.214Z,65.89
2023-01-19T21:49:10.928Z,63.57
2023-01-19T21:51:56.750Z,64.16
2023-01-19T21:54:42.713Z,64.04
2023-01-19T21:57:28.576Z,66.62
2023-01-19T22:00:14.406Z,71.38
2023-01-19T22:03:04.241Z,72.03
2023-01-19T22:05:50.834Z,72.37
2023-01-19T22:08:36.745Z,72.87
2023-01-19T22:11:22.733Z,74.85
2023-01-19T22:14:08.725Z,76.59
2023-01-19T22:16:54.580Z,77.20
2023-01-19T22:19:40.562Z,78.58
2023-01-19T22:22:26.506Z,78.76
2023-01-19T22:25:12.751Z,79.03
2023-01-19T22:27:59.028Z,79.08
2023-01-19T22:30:45.027Z,79.34
2023-01-19T22:33:31.072Z,78.94
2023-01-19T22:36:17.059Z,79.43
2023-01-19T22:39:02.997Z,79.87
2023-01-19T22:41:48.942Z,79.93
2023-01-19T22:44:34.848Z,79.75
2023-01-19T22:47:20.815Z,80.55
2023-01-19T22:50:06.753Z,80.48
2023-01-19T22:52:52.587Z,80.00
2023-01-19T22:55:38.394Z,79.27
2023-01-19T22:58:24.331Z,78.13
2023-01-19T23:01:10.266Z,76.86
2023-01-19T23:03:56.155Z,76.91
2023-01-19T23:06:42.143Z,75.09
2023-01-19T23:09:28.036Z,75.22
2023-01-19T23:12:13.976Z,75.84
2023-01-19T23:14:59.873Z,76.85
2023-01-19T23:17:45.893Z,77.52
2023-01-19T23:20:32.008Z,76.95
2023-01-19T23:23:17.830Z,76.79
2023-01-19T23:26:03.902Z,75.93
2023-01-19T23:28:49.759Z,76.37
2023-01-19T23:31:35.740Z,76.68
2023-01-19T23:34:21.741Z,76.19
2023-01-19T23:37:07.687Z,75.56
2023-01-19T23:39:53.554Z,75.07
2023-01-19T23:42:39.540Z,75.63
2023-01-19T23:45:25.313Z,76.00
2023-01-19T23:48:11.166Z,75.94
2023-01-19T23:50:56.984Z,76.01
2023-01-19T23:53:42.952Z,75.63
2023-01-19T23:56:28.947Z,76.09
2023-01-19T23:59:14.800Z,75.40
